Monday, October 15, 2018, 4:30 AM EDT
Back to Local

KART, Watertown International Airport

Location: Dexter, NY, United States Lat: 43.983
Local Time: 4:30 AM EDT ( 8:30 GMT) Lon: -76.033
Time Zone: US/Eastern Elev: 324 ft

Show me the last for .
Show Coded

Time T Td Feel RH Dir Speed Gust Alt SLP Vis Weather Sky Remarks
2018-10-15 03:56 42 40 - 91 - Calm - 30.04 30.04 10 CLR None
2018-10-15 02:56 47 41 44 79 160° 6 - 30.06 30.06 10 CLR None
2018-10-15 01:56 46 41 44 82 160° 5 - 30.08 30.08 10 CLR 6-hr Min Temp (2am): 37.0°F
6-hr Max Temp (2am): 46.0°F
2018-10-15 00:56 44 39 - 82 - Calm - 30.10 30.10 10 CLR 24-hr Min Temp (1am): 28.9°F
24-hr Max Temp (1am): 57.0°F
2018-10-14 23:56 37 36 34 95 110° 3 - 30.11 30.11 10 CLR None
2018-10-14 22:56 40 38 38 92 90° 3 - 30.12 30.12 10 CLR None
2018-10-14 21:56 40 39 38 96 90° 3 - 30.13 30.14 9 CLR None
2018-10-14 20:56 41 40 39 95 80° 3 - 30.13 30.14 9 CLR None
2018-10-14 19:56 42 40 40 91 80° 3 - 30.13 30.14 10 CLR 6-hr Min Temp (8pm): 42.1°F
6-hr Max Temp (8pm): 57.0°F
2018-10-14 18:56 48 42 - 79 - Calm - 30.12 30.13 10 CLR None
2018-10-14 17:56 53 43 - 68 - Calm - 30.13 30.13 10 CLR None
2018-10-14 16:56 54 41 - 61 210° 7 - 30.13 30.14 10 BKN050 None
2018-10-14 15:56 56 42 - 59 250° 12 17 30.14 30.15 10 FEW042 OVC055 None
2018-10-14 14:56 56 39 - 52 210° 10 18 30.14 30.15 10 FEW044 SCT120 None
2018-10-14 13:56 55 40 - 56 240° 8 20 30.15 30.16 10 FEW037 6-hr Min Temp (2pm): 33.1°F
6-hr Max Temp (2pm): 55.9°F
2018-10-14 12:56 55 40 - 56 250° 12 - 30.17 30.17 10 SCT038 None
2018-10-14 11:56 53 38 - 56 200° 9 - 30.19 30.19 10 SCT038 None
2018-10-14 10:56 50 38 47 63 Variable 7 - 30.19 30.19 10 CLR None
2018-10-14 09:56 46 38 44 73 160° 5 - 30.18 30.18 10 CLR None
2018-10-14 08:56 42 39 39 88 160° 5 - 30.17 30.18 10 SCT100 None
2018-10-14 07:56 33 33 30 100 130° 3 - 30.16 30.16 10 CLR 24-hr Precip Total (8am): 0.02"
6-hr Min Temp (8am): 28.9°F
6-hr Max Temp (8am): 34.0°F
2018-10-14 06:56 32 31 29 95 90° 3 - 30.15 30.16 10 CLR None
2018-10-14 05:56 30 30 - 100 - Calm - 30.14 30.15 10 CLR None
2018-10-14 04:56 29 29 - 100 - Calm - 30.12 30.13 10 CLR None

Support USWX by starting your Amazon purchase here.